sensor_id;sensor_type;location;lat;lon;timestamp;pressure;altitude;pressure_sealevel;temperature;humidity
52032;BME280;38044;45.148;39.604;2023-03-16T00:01:58;100180.91;;;5.61;77.84
52032;BME280;38044;45.148;39.604;2023-03-16T00:04:24;100134.50;;;5.37;77.72
52032;BME280;38044;45.148;39.604;2023-03-16T00:06:50;100023.63;;;4.59;77.84
52032;BME280;38044;45.148;39.604;2023-03-16T00:09:16;100162.22;;;5.46;78.06
52032;BME280;38044;45.148;39.604;2023-03-16T00:11:42;100147.81;;;5.42;78.15
52032;BME280;38044;45.148;39.604;2023-03-16T00:14:07;100118.50;;;5.22;78.45
52032;BME280;38044;45.148;39.604;2023-03-16T00:16:33;100193.94;;;5.63;78.17
52032;BME280;38044;45.148;39.604;2023-03-16T00:19:00;100193.44;;;5.61;78.24
52032;BME280;38044;45.148;39.604;2023-03-16T00:21:28;100052.41;;;4.72;78.35
52032;BME280;38044;45.148;39.604;2023-03-16T00:23:57;100016.13;;;4.46;78.27
52032;BME280;38044;45.148;39.604;2023-03-16T00:26:23;100177.69;;;5.49;78.13
52032;BME280;38044;45.148;39.604;2023-03-16T00:28:50;100044.91;;;4.64;77.93
52032;BME280;38044;45.148;39.604;2023-03-16T00:31:19;100186.22;;;5.56;78.35
52032;BME280;38044;45.148;39.604;2023-03-16T00:33:44;100165.97;;;5.45;78.25
52032;BME280;38044;45.148;39.604;2023-03-16T00:36:11;100184.63;;;5.50;78.58
52032;BME280;38044;45.148;39.604;2023-03-16T00:38:39;100148.88;;;5.31;78.46
52032;BME280;38044;45.148;39.604;2023-03-16T00:41:11;100181.16;;;5.45;78.81
52032;BME280;38044;45.148;39.604;2023-03-16T00:43:39;100157.44;;;5.33;78.76
52032;BME280;38044;45.148;39.604;2023-03-16T00:46:11;99992.16;;;4.31;78.86
52032;BME280;38044;45.148;39.604;2023-03-16T00:48:39;99989.47;;;4.25;79.02
52032;BME280;38044;45.148;39.604;2023-03-16T00:51:09;100117.41;;;5.02;79.33
52032;BME280;38044;45.148;39.604;2023-03-16T00:53:38;100144.34;;;5.21;79.47
52032;BME280;38044;45.148;39.604;2023-03-16T00:56:05;100143.00;;;5.13;79.50
52032;BME280;38044;45.148;39.604;2023-03-16T00:58:32;100156.59;;;5.22;79.85
52032;BME280;38044;45.148;39.604;2023-03-16T01:03:28;100165.41;;;5.28;79.99
52032;BME280;38044;45.148;39.604;2023-03-16T01:05:53;100180.59;;;5.27;80.07
52032;BME280;38044;45.148;39.604;2023-03-16T01:08:26;99992.13;;;4.20;79.92
52032;BME280;38044;45.148;39.604;2023-03-16T01:10:53;100160.06;;;5.07;80.24
52032;BME280;38044;45.148;39.604;2023-03-16T01:13:19;100175.81;;;5.24;80.28
52032;BME280;38044;45.148;39.604;2023-03-16T01:15:45;100135.53;;;5.05;80.06
52032;BME280;38044;45.148;39.604;2023-03-16T01:18:11;100119.03;;;4.98;80.15
52032;BME280;38044;45.148;39.604;2023-03-16T01:20:38;100176.59;;;5.25;80.29
52032;BME280;38044;45.148;39.604;2023-03-16T01:23:04;100186.97;;;5.26;80.23
52032;BME280;38044;45.148;39.604;2023-03-16T01:25:30;100139.81;;;5.01;80.19
52032;BME280;38044;45.148;39.604;2023-03-16T01:27:57;100105.09;;;4.81;80.56
52032;BME280;38044;45.148;39.604;2023-03-16T01:30:23;100195.81;;;5.27;80.46
52032;BME280;38044;45.148;39.604;2023-03-16T01:32:48;100190.47;;;5.27;80.52
52032;BME280;38044;45.148;39.604;2023-03-16T01:35:14;100201.91;;;5.22;80.42
52032;BME280;38044;45.148;39.604;2023-03-16T01:37:40;100142.97;;;4.93;80.08
52032;BME280;38044;45.148;39.604;2023-03-16T01:40:07;100160.59;;;5.04;79.86
52032;BME280;38044;45.148;39.604;2023-03-16T01:42:58;100171.25;;;5.04;80.37
52032;BME280;38044;45.148;39.604;2023-03-16T01:48:28;100152.53;;;4.79;80.18
52032;BME280;38044;45.148;39.604;2023-03-16T01:51:04;100074.06;;;4.23;80.31
52032;BME280;38044;45.148;39.604;2023-03-16T01:53:32;100016.47;;;3.81;80.59
52032;BME280;38044;45.148;39.604;2023-03-16T01:55:59;100030.84;;;3.91;80.60
52032;BME280;38044;45.148;39.604;2023-03-16T01:58:28;100179.72;;;4.91;80.63
52032;BME280;38044;45.148;39.604;2023-03-16T02:00:55;100207.41;;;4.95;80.69
52032;BME280;38044;45.148;39.604;2023-03-16T02:03:24;100196.47;;;4.86;80.82
52032;BME280;38044;45.148;39.604;2023-03-16T02:06:09;100196.78;;;5.00;80.85
52032;BME280;38044;45.148;39.604;2023-03-16T02:08:38;100130.06;;;4.44;80.99
52032;BME280;38044;45.148;39.604;2023-03-16T02:11:05;100219.16;;;4.94;80.82
52032;BME280;38044;45.148;39.604;2023-03-16T02:13:33;100195.09;;;4.68;80.97
52032;BME280;38044;45.148;39.604;2023-03-16T02:16:03;100220.22;;;4.93;80.80
52032;BME280;38044;45.148;39.604;2023-03-16T02:18:30;100206.09;;;4.92;80.71
52032;BME280;38044;45.148;39.604;2023-03-16T02:21:09;100205.59;;;4.95;80.74
52032;BME280;38044;45.148;39.604;2023-03-16T02:23:41;100164.19;;;4.62;80.96
52032;BME280;38044;45.148;39.604;2023-03-16T02:31:19;100171.66;;;4.70;81.22
52032;BME280;38044;45.148;39.604;2023-03-16T02:33:48;100187.16;;;4.89;81.42
52032;BME280;38044;45.148;39.604;2023-03-16T02:36:17;100185.03;;;4.86;81.41
52032;BME280;38044;45.148;39.604;2023-03-16T02:38:43;100193.28;;;4.84;81.39
52032;BME280;38044;45.148;39.604;2023-03-16T02:41:13;100189.28;;;4.82;81.46
52032;BME280;38044;45.148;39.604;2023-03-16T02:43:44;100194.84;;;4.80;81.88
52032;BME280;38044;45.148;39.604;2023-03-16T02:46:12;100200.47;;;4.79;81.68
52032;BME280;38044;45.148;39.604;2023-03-16T02:48:49;100197.81;;;4.79;81.89
52032;BME280;38044;45.148;39.604;2023-03-16T02:51:17;100155.84;;;4.43;81.58
52032;BME280;38044;45.148;39.604;2023-03-16T02:53:43;100091.81;;;4.02;81.59
52032;BME280;38044;45.148;39.604;2023-03-16T02:56:09;100211.91;;;4.79;81.83
52032;BME280;38044;45.148;39.604;2023-03-16T02:58:35;100209.78;;;4.81;81.66
52032;BME280;38044;45.148;39.604;2023-03-16T03:01:01;100061.44;;;3.93;81.49
52032;BME280;38044;45.148;39.604;2023-03-16T03:03:28;100189.25;;;4.71;81.89
52032;BME280;38044;45.148;39.604;2023-03-16T03:05:54;100016.31;;;3.56;81.75
52032;BME280;38044;45.148;39.604;2023-03-16T03:08:20;100075.56;;;3.99;81.82
52032;BME280;38044;45.148;39.604;2023-03-16T03:10:48;100203.16;;;4.84;81.53
52032;BME280;38044;45.148;39.604;2023-03-16T03:13:14;100202.06;;;4.80;81.71
52032;BME280;38044;45.148;39.604;2023-03-16T03:15:39;100046.75;;;3.80;81.34
52032;BME280;38044;45.148;39.604;2023-03-16T03:18:05;100055.84;;;3.90;81.28
52032;BME280;38044;45.148;39.604;2023-03-16T03:20:32;100179.84;;;4.54;81.87
52032;BME280;38044;45.148;39.604;2023-03-16T03:22:57;100201.50;;;4.72;82.03
52032;BME280;38044;45.148;39.604;2023-03-16T03:25:26;100215.34;;;4.74;82.11
52032;BME280;38044;45.148;39.604;2023-03-16T03:27:52;100207.34;;;4.74;82.10
52032;BME280;38044;45.148;39.604;2023-03-16T03:30:21;100187.06;;;4.63;82.37
52032;BME280;38044;45.148;39.604;2023-03-16T03:32:47;100151.84;;;4.36;81.90
52032;BME280;38044;45.148;39.604;2023-03-16T03:35:14;100179.84;;;4.54;81.94
52032;BME280;38044;45.148;39.604;2023-03-16T03:37:41;100161.44;;;4.42;81.97
52032;BME280;38044;45.148;39.604;2023-03-16T03:40:12;100020.53;;;3.52;81.67
52032;BME280;38044;45.148;39.604;2023-03-16T03:42:38;100202.53;;;4.66;82.16
52032;BME280;38044;45.148;39.604;2023-03-16T03:45:04;100200.38;;;4.58;82.02
52032;BME280;38044;45.148;39.604;2023-03-16T03:47:30;100164.63;;;4.39;82.14
52032;BME280;38044;45.148;39.604;2023-03-16T03:49:56;100176.66;;;4.51;81.93
52032;BME280;38044;45.148;39.604;2023-03-16T03:52:22;100212.72;;;4.80;81.76
52032;BME280;38044;45.148;39.604;2023-03-16T03:54:48;100202.84;;;4.80;81.64
52032;BME280;38044;45.148;39.604;2023-03-16T03:57:14;100180.72;;;4.69;81.69
52032;BME280;38044;45.148;39.604;2023-03-16T03:59:39;100219.41;;;4.97;81.41
52032;BME280;38044;45.148;39.604;2023-03-16T04:02:12;100182.66;;;4.94;81.34
52032;BME280;38044;45.148;39.604;2023-03-16T04:04:39;100189.88;;;4.99;80.71
52032;BME280;38044;45.148;39.604;2023-03-16T04:07:05;100219.25;;;5.35;80.20
52032;BME280;38044;45.148;39.604;2023-03-16T04:09:31;100235.28;;;5.45;80.01
52032;BME280;38044;45.148;39.604;2023-03-16T04:12:00;100236.88;;;5.51;79.71
52032;BME280;38044;45.148;39.604;2023-03-16T04:14:27;100171.81;;;5.27;79.71
52032;BME280;38044;45.148;39.604;2023-03-16T04:16:53;100224.09;;;5.89;79.12
52032;BME280;38044;45.148;39.604;2023-03-16T04:19:20;100224.09;;;6.15;78.40
52032;BME280;38044;45.148;39.604;2023-03-16T04:21:47;100229.38;;;6.40;77.76
52032;BME280;38044;45.148;39.604;2023-03-16T04:24:13;100209.91;;;6.45;76.94
52032;BME280;38044;45.148;39.604;2023-03-16T04:26:40;100214.91;;;6.62;76.37
52032;BME280;38044;45.148;39.604;2023-03-16T04:29:06;100109.34;;;6.15;75.74
52032;BME280;38044;45.148;39.604;2023-03-16T04:31:32;100218.44;;;7.07;75.09
52032;BME280;38044;45.148;39.604;2023-03-16T04:33:58;100117.34;;;6.74;74.25
52032;BME280;38044;45.148;39.604;2023-03-16T04:36:24;100227.31;;;7.81;73.66
52032;BME280;38044;45.148;39.604;2023-03-16T04:38:50;100068.72;;;7.12;72.48
52032;BME280;38044;45.148;39.604;2023-03-16T04:41:17;100176.47;;;8.10;71.53
52032;BME280;38044;45.148;39.604;2023-03-16T04:43:43;100067.00;;;7.55;70.85
52032;BME280;38044;45.148;39.604;2023-03-16T04:46:09;100195.75;;;8.60;70.40
52032;BME280;38044;45.148;39.604;2023-03-16T04:48:35;100215.16;;;8.95;70.00
52032;BME280;38044;45.148;39.604;2023-03-16T04:51:02;100193.81;;;9.09;69.01
52032;BME280;38044;45.148;39.604;2023-03-16T04:53:31;100166.47;;;9.25;68.13
52032;BME280;38044;45.148;39.604;2023-03-16T04:55:58;100117.34;;;9.11;66.88
52032;BME280;38044;45.148;39.604;2023-03-16T04:58:24;100102.69;;;9.22;66.86
52032;BME280;38044;45.148;39.604;2023-03-16T05:00:53;100108.47;;;9.62;65.79
52032;BME280;38044;45.148;39.604;2023-03-16T05:03:20;100175.72;;;10.45;64.58
52032;BME280;38044;45.148;39.604;2023-03-16T05:05:47;100226.84;;;11.09;63.53
52032;BME280;38044;45.148;39.604;2023-03-16T05:08:14;100080.38;;;10.01;63.01
52032;BME280;38044;45.148;39.604;2023-03-16T05:10:40;100215.88;;;11.05;62.94
52032;BME280;38044;45.148;39.604;2023-03-16T05:13:06;100235.13;;;11.35;62.67
52032;BME280;38044;45.148;39.604;2023-03-16T05:15:32;100105.66;;;10.92;61.36
52032;BME280;38044;45.148;39.604;2023-03-16T05:17:58;100248.88;;;12.15;60.65
52032;BME280;38044;45.148;39.604;2023-03-16T05:20:26;100250.00;;;12.45;59.64
52032;BME280;38044;45.148;39.604;2023-03-16T05:22:52;100246.09;;;12.60;58.74
52032;BME280;38044;45.148;39.604;2023-03-16T05:25:18;100244.44;;;12.99;58.48
52032;BME280;38044;45.148;39.604;2023-03-16T05:27:50;100254.53;;;13.50;58.13
52032;BME280;38044;45.148;39.604;2023-03-16T05:30:17;100107.94;;;12.80;56.60
52032;BME280;38044;45.148;39.604;2023-03-16T05:32:43;100252.28;;;13.79;56.23
52032;BME280;38044;45.148;39.604;2023-03-16T05:35:11;100205.06;;;13.85;55.57
52032;BME280;38044;45.148;39.604;2023-03-16T05:37:41;100270.56;;;14.63;54.79
52032;BME280;38044;45.148;39.604;2023-03-16T05:40:10;100254.16;;;14.69;53.86
52032;BME280;38044;45.148;39.604;2023-03-16T05:42:46;100190.72;;;14.57;53.16
52032;BME280;38044;45.148;39.604;2023-03-16T05:45:14;100290.00;;;15.46;52.15
52032;BME280;38044;45.148;39.604;2023-03-16T05:47:40;100263.03;;;15.70;51.56
52032;BME280;38044;45.148;39.604;2023-03-16T05:50:09;100256.22;;;15.85;51.11
52032;BME280;38044;45.148;39.604;2023-03-16T05:52:37;100165.06;;;15.68;50.58
52032;BME280;38044;45.148;39.604;2023-03-16T05:55:04;100290.78;;;16.79;49.53
52032;BME280;38044;45.148;39.604;2023-03-16T05:57:31;100170.91;;;16.40;48.71
52032;BME280;38044;45.148;39.604;2023-03-16T05:59:58;100283.28;;;17.38;47.45
52032;BME280;38044;45.148;39.604;2023-03-16T06:02:24;100286.81;;;17.54;47.15
52032;BME280;38044;45.148;39.604;2023-03-16T06:04:51;100258.47;;;17.67;46.63
52032;BME280;38044;45.148;39.604;2023-03-16T06:07:20;100272.94;;;17.84;46.30
52032;BME280;38044;45.148;39.604;2023-03-16T06:09:45;100285.53;;;17.76;46.37
52032;BME280;38044;45.148;39.604;2023-03-16T06:12:11;100272.56;;;17.97;46.05
52032;BME280;38044;45.148;39.604;2023-03-16T06:14:37;100291.13;;;18.23;45.71
52032;BME280;38044;45.148;39.604;2023-03-16T06:17:03;100280.28;;;18.11;45.48
52032;BME280;38044;45.148;39.604;2023-03-16T06:19:29;100276.44;;;18.12;45.52
52032;BME280;38044;45.148;39.604;2023-03-16T06:21:56;100291.66;;;18.45;45.30
52032;BME280;38044;45.148;39.604;2023-03-16T06:24:21;100275.78;;;18.79;44.68
52032;BME280;38044;45.148;39.604;2023-03-16T06:26:47;100180.09;;;18.29;43.78
52032;BME280;38044;45.148;39.604;2023-03-16T06:29:13;100265.06;;;18.86;44.18
52032;BME280;38044;45.148;39.604;2023-03-16T06:31:39;100272.41;;;19.01;43.68
52032;BME280;38044;45.148;39.604;2023-03-16T06:34:05;100251.94;;;19.07;43.27
52032;BME280;38044;45.148;39.604;2023-03-16T06:36:31;100177.16;;;18.69;42.47
52032;BME280;38044;45.148;39.604;2023-03-16T06:38:56;100292.72;;;19.58;42.67
52032;BME280;38044;45.148;39.604;2023-03-16T06:41:22;100280.25;;;19.96;42.62
52032;BME280;38044;45.148;39.604;2023-03-16T06:43:48;100251.78;;;20.17;42.35
52032;BME280;38044;45.148;39.604;2023-03-16T06:46:14;100254.44;;;20.36;41.73
52032;BME280;38044;45.148;39.604;2023-03-16T06:48:39;100232.03;;;20.00;41.09
52032;BME280;38044;45.148;39.604;2023-03-16T06:51:06;100277.75;;;20.30;41.54
52032;BME280;38044;45.148;39.604;2023-03-16T06:53:32;100184.13;;;20.26;41.15
52032;BME280;38044;45.148;39.604;2023-03-16T06:55:58;100152.72;;;20.39;40.14
52032;BME280;38044;45.148;39.604;2023-03-16T06:58:24;100174.59;;;20.66;40.42
52032;BME280;38044;45.148;39.604;2023-03-16T07:00:49;100251.66;;;21.35;40.19
52032;BME280;38044;45.148;39.604;2023-03-16T07:03:18;100185.00;;;20.83;39.92
52032;BME280;38044;45.148;39.604;2023-03-16T07:05:44;100243.31;;;21.25;40.20
52032;BME280;38044;45.148;39.604;2023-03-16T07:08:09;100168.63;;;21.17;40.21
52032;BME280;38044;45.148;39.604;2023-03-16T07:10:36;100197.50;;;21.45;39.26
52032;BME280;38044;45.148;39.604;2023-03-16T07:13:02;100266.72;;;21.86;39.81
52032;BME280;38044;45.148;39.604;2023-03-16T07:15:28;100208.44;;;21.45;40.45
52032;BME280;38044;45.148;39.604;2023-03-16T07:17:54;100256.38;;;21.69;40.04
52032;BME280;38044;45.148;39.604;2023-03-16T07:20:20;100206.59;;;21.52;40.33
52032;BME280;38044;45.148;39.604;2023-03-16T07:22:46;100257.59;;;22.49;39.57
52032;BME280;38044;45.148;39.604;2023-03-16T07:25:11;100178.97;;;22.50;38.78
52032;BME280;38044;45.148;39.604;2023-03-16T07:27:38;100154.53;;;22.23;38.21
52032;BME280;38044;45.148;39.604;2023-03-16T07:30:06;100264.66;;;23.06;38.34
52032;BME280;38044;45.148;39.604;2023-03-16T07:32:32;100160.19;;;22.52;37.91
52032;BME280;38044;45.148;39.604;2023-03-16T07:34:58;100275.78;;;23.31;37.08
52032;BME280;38044;45.148;39.604;2023-03-16T07:37:25;100235.19;;;22.92;38.22
52032;BME280;38044;45.148;39.604;2023-03-16T07:39:50;100284.25;;;23.04;38.08
52032;BME280;38044;45.148;39.604;2023-03-16T07:42:16;100273.50;;;23.44;37.67
52032;BME280;38044;45.148;39.604;2023-03-16T07:44:43;100260.22;;;23.56;37.24
52032;BME280;38044;45.148;39.604;2023-03-16T07:47:11;100225.19;;;23.21;37.10
52032;BME280;38044;45.148;39.604;2023-03-16T07:49:37;100240.09;;;23.24;38.03
52032;BME280;38044;45.148;39.604;2023-03-16T07:52:03;100265.78;;;22.98;37.76
52032;BME280;38044;45.148;39.604;2023-03-16T07:54:29;100184.25;;;22.29;38.43
52032;BME280;38044;45.148;39.604;2023-03-16T07:56:55;100231.75;;;23.02;38.74
52032;BME280;38044;45.148;39.604;2023-03-16T07:59:20;100253.16;;;23.59;37.62
52032;BME280;38044;45.148;39.604;2023-03-16T08:01:46;100236.56;;;23.23;37.50
52032;BME280;38044;45.148;39.604;2023-03-16T08:04:13;100238.25;;;23.53;37.71
52032;BME280;38044;45.148;39.604;2023-03-16T08:06:39;100239.75;;;23.32;37.00
52032;BME280;38044;45.148;39.604;2023-03-16T08:09:05;100109.91;;;22.19;37.97
52032;BME280;38044;45.148;39.604;2023-03-16T08:11:30;100251.19;;;22.83;38.05
52032;BME280;38044;45.148;39.604;2023-03-16T08:13:56;100163.53;;;22.90;37.33
52032;BME280;38044;45.148;39.604;2023-03-16T08:16:23;100179.25;;;22.97;37.43
52032;BME280;38044;45.148;39.604;2023-03-16T08:18:49;100247.78;;;23.91;37.36
52032;BME280;38044;45.148;39.604;2023-03-16T08:21:17;100195.66;;;24.20;36.34
52032;BME280;38044;45.148;39.604;2023-03-16T08:23:43;100236.47;;;24.68;35.65
52032;BME280;38044;45.148;39.604;2023-03-16T08:26:15;100237.25;;;24.83;36.18
52032;BME280;38044;45.148;39.604;2023-03-16T08:28:44;100260.38;;;25.07;35.51
52032;BME280;38044;45.148;39.604;2023-03-16T08:31:11;100261.59;;;24.63;35.85
52032;BME280;38044;45.148;39.604;2023-03-16T08:33:42;100254.97;;;24.49;36.86
52032;BME280;38044;45.148;39.604;2023-03-16T08:36:10;100266.72;;;24.64;36.55
52032;BME280;38044;45.148;39.604;2023-03-16T08:38:38;100233.31;;;24.19;36.73
52032;BME280;38044;45.148;39.604;2023-03-16T08:41:04;100258.06;;;24.77;37.16
52032;BME280;38044;45.148;39.604;2023-03-16T08:43:31;100260.00;;;24.94;37.07
52032;BME280;38044;45.148;39.604;2023-03-16T08:45:57;100257.97;;;25.30;36.05
52032;BME280;38044;45.148;39.604;2023-03-16T08:48:24;100242.69;;;25.01;36.63
52032;BME280;38044;45.148;39.604;2023-03-16T08:50:50;100235.28;;;24.87;36.71
52032;BME280;38044;45.148;39.604;2023-03-16T08:53:16;100238.41;;;24.92;36.40
52032;BME280;38044;45.148;39.604;2023-03-16T08:55:43;100159.53;;;24.68;35.90
52032;BME280;38044;45.148;39.604;2023-03-16T08:58:10;100268.06;;;25.62;36.45
52032;BME280;38044;45.148;39.604;2023-03-16T09:00:37;100153.59;;;24.80;36.55
52032;BME280;38044;45.148;39.604;2023-03-16T09:03:04;100188.84;;;25.17;36.30
52032;BME280;38044;45.148;39.604;2023-03-16T09:05:30;100267.63;;;25.63;37.06
52032;BME280;38044;45.148;39.604;2023-03-16T09:07:57;100256.63;;;25.67;37.11
52032;BME280;38044;45.148;39.604;2023-03-16T09:10:24;100264.75;;;25.92;36.26
52032;BME280;38044;45.148;39.604;2023-03-16T09:12:52;100250.47;;;26.12;35.61
52032;BME280;38044;45.148;39.604;2023-03-16T09:15:19;100252.13;;;26.58;35.33
52032;BME280;38044;45.148;39.604;2023-03-16T09:17:46;100253.31;;;26.49;34.63
52032;BME280;38044;45.148;39.604;2023-03-16T09:20:14;100239.59;;;26.46;36.02
52032;BME280;38044;45.148;39.604;2023-03-16T09:22:41;100244.69;;;26.51;35.07
52032;BME280;38044;45.148;39.604;2023-03-16T09:25:08;100221.88;;;26.43;36.23
52032;BME280;38044;45.148;39.604;2023-03-16T09:27:36;100128.59;;;26.00;35.14
52032;BME280;38044;45.148;39.604;2023-03-16T09:30:03;100234.91;;;25.91;35.42
52032;BME280;38044;45.148;39.604;2023-03-16T09:32:29;100241.50;;;25.12;36.31
52032;BME280;38044;45.148;39.604;2023-03-16T09:34:55;100216.31;;;25.28;37.16
52032;BME280;38044;45.148;39.604;2023-03-16T09:37:21;100235.06;;;25.58;36.40
52032;BME280;38044;45.148;39.604;2023-03-16T09:39:48;100229.00;;;25.89;36.98
52032;BME280;38044;45.148;39.604;2023-03-16T09:42:34;100104.28;;;25.92;35.05
52032;BME280;38044;45.148;39.604;2023-03-16T09:45:27;100234.81;;;26.95;35.90
52032;BME280;38044;45.148;39.604;2023-03-16T09:47:57;100122.44;;;25.86;35.00
52032;BME280;38044;45.148;39.604;2023-03-16T09:50:30;100123.28;;;25.72;35.78
52032;BME280;38044;45.148;39.604;2023-03-16T09:53:31;100233.91;;;27.05;36.01
52032;BME280;38044;45.148;39.604;2023-03-16T09:58:33;100224.06;;;26.66;35.77
52032;BME280;38044;45.148;39.604;2023-03-16T10:01:04;100135.41;;;26.34;35.17
52032;BME280;38044;45.148;39.604;2023-03-16T10:10:25;100216.13;;;26.76;35.98
52032;BME280;38044;45.148;39.604;2023-03-16T10:12:53;100195.28;;;26.26;35.77
52032;BME280;38044;45.148;39.604;2023-03-16T10:15:25;100117.44;;;25.66;36.55
52032;BME280;38044;45.148;39.604;2023-03-16T10:18:13;100194.56;;;26.18;36.04
52032;BME280;38044;45.148;39.604;2023-03-16T10:20:40;100158.75;;;25.62;36.69
52032;BME280;38044;45.148;39.604;2023-03-16T10:23:20;100102.94;;;25.62;36.67
52032;BME280;38044;45.148;39.604;2023-03-16T10:25:49;100156.38;;;25.61;36.49
52032;BME280;38044;45.148;39.604;2023-03-16T10:30:47;100203.00;;;25.97;37.17
52032;BME280;38044;45.148;39.604;2023-03-16T10:33:22;100208.19;;;25.84;37.10
52032;BME280;38044;45.148;39.604;2023-03-16T10:35:58;100112.38;;;24.87;37.78
52032;BME280;38044;45.148;39.604;2023-03-16T10:43:48;100059.53;;;23.29;38.99
52032;BME280;38044;45.148;39.604;2023-03-16T10:46:14;100217.63;;;24.16;40.39
52032;BME280;38044;45.148;39.604;2023-03-16T10:48:41;100061.03;;;23.02;40.00
52032;BME280;38044;45.148;39.604;2023-03-16T10:51:12;100209.38;;;23.95;40.79
52032;BME280;38044;45.148;39.604;2023-03-16T10:53:42;100215.25;;;23.93;40.99
52032;BME280;38044;45.148;39.604;2023-03-16T10:56:19;100186.63;;;23.94;40.60
52032;BME280;38044;45.148;39.604;2023-03-16T10:58:45;100193.66;;;23.74;40.76
52032;BME280;38044;45.148;39.604;2023-03-16T11:01:20;100194.44;;;23.71;41.13
52032;BME280;38044;45.148;39.604;2023-03-16T11:03:52;100215.94;;;23.69;42.18
52032;BME280;38044;45.148;39.604;2023-03-16T11:06:31;100223.41;;;23.68;42.04
52032;BME280;38044;45.148;39.604;2023-03-16T11:09:06;100223.38;;;23.57;42.35
52032;BME280;38044;45.148;39.604;2023-03-16T11:11:37;100229.56;;;23.40;42.07
52032;BME280;38044;45.148;39.604;2023-03-16T11:14:10;100093.38;;;22.75;42.04
52032;BME280;38044;45.148;39.604;2023-03-16T11:16:46;100227.59;;;23.33;41.15
52032;BME280;38044;45.148;39.604;2023-03-16T11:19:36;100216.16;;;23.13;42.49
52032;BME280;38044;45.148;39.604;2023-03-16T11:22:14;100137.53;;;22.59;42.63
52032;BME280;38044;45.148;39.604;2023-03-16T11:24:55;100257.03;;;23.44;42.68
52032;BME280;38044;45.148;39.604;2023-03-16T11:27:51;100119.13;;;22.52;42.16
52032;BME280;38044;45.148;39.604;2023-03-16T11:30:28;100237.59;;;22.97;42.88
52032;BME280;38044;45.148;39.604;2023-03-16T11:32:56;100238.56;;;22.67;43.33
52032;BME280;38044;45.148;39.604;2023-03-16T11:35:38;100250.84;;;22.91;42.94
52032;BME280;38044;45.148;39.604;2023-03-16T11:38:20;100203.19;;;22.48;42.68
52032;BME280;38044;45.148;39.604;2023-03-16T11:41:00;100149.63;;;22.06;44.07
52032;BME280;38044;45.148;39.604;2023-03-16T11:48:41;100211.59;;;22.21;43.43
52032;BME280;38044;45.148;39.604;2023-03-16T11:54:02;100267.69;;;22.01;44.37
52032;BME280;38044;45.148;39.604;2023-03-16T11:56:38;100177.84;;;21.35;44.44
52032;BME280;38044;45.148;39.604;2023-03-16T12:04:36;100282.03;;;21.57;45.74
52032;BME280;38044;45.148;39.604;2023-03-16T12:07:28;100255.28;;;21.43;45.44
52032;BME280;38044;45.148;39.604;2023-03-16T12:15:34;100279.81;;;21.66;45.12
52032;BME280;38044;45.148;39.604;2023-03-16T12:18:11;100273.34;;;21.81;45.66
52032;BME280;38044;45.148;39.604;2023-03-16T12:20:49;100261.50;;;22.08;45.03
52032;BME280;38044;45.148;39.604;2023-03-16T12:23:20;100267.09;;;22.18;44.73
52032;BME280;38044;45.148;39.604;2023-03-16T12:25:50;100134.19;;;21.43;44.16
52032;BME280;38044;45.148;39.604;2023-03-16T12:28:24;100181.84;;;21.79;43.89
52032;BME280;38044;45.148;39.604;2023-03-16T12:33:34;100278.69;;;22.08;44.77
52032;BME280;38044;45.148;39.604;2023-03-16T12:38:46;100299.28;;;21.95;45.19
52032;BME280;38044;45.148;39.604;2023-03-16T12:41:26;100170.91;;;21.11;45.01
52032;BME280;38044;45.148;39.604;2023-03-16T12:46:55;100306.59;;;21.84;45.23
52032;BME280;38044;45.148;39.604;2023-03-16T12:49:26;100278.16;;;21.58;45.17
52032;BME280;38044;45.148;39.604;2023-03-16T12:52:01;100160.22;;;20.69;45.43
52032;BME280;38044;45.148;39.604;2023-03-16T12:54:28;100268.63;;;21.18;45.84
52032;BME280;38044;45.148;39.604;2023-03-16T12:57:08;100291.97;;;21.39;46.23
52032;BME280;38044;45.148;39.604;2023-03-16T12:59:45;100149.16;;;20.35;46.58
52032;BME280;38044;45.148;39.604;2023-03-16T13:02:16;100295.63;;;21.50;45.97
52032;BME280;38044;45.148;39.604;2023-03-16T13:04:46;100287.69;;;21.14;46.52
52032;BME280;38044;45.148;39.604;2023-03-16T13:07:19;100152.75;;;20.16;47.03
52032;BME280;38044;45.148;39.604;2023-03-16T13:10:13;100314.44;;;21.28;46.19
52032;BME280;38044;45.148;39.604;2023-03-16T13:12:40;100294.03;;;20.69;46.33
52032;BME280;38044;45.148;39.604;2023-03-16T13:18:02;100260.84;;;20.21;47.20
52032;BME280;38044;45.148;39.604;2023-03-16T13:20:31;100299.63;;;20.34;47.72
52032;BME280;38044;45.148;39.604;2023-03-16T13:25:56;100250.97;;;19.74;47.69
52032;BME280;38044;45.148;39.604;2023-03-16T13:28:28;100156.72;;;18.95;48.66
52032;BME280;38044;45.148;39.604;2023-03-16T13:30:56;100303.97;;;19.73;48.64
52032;BME280;38044;45.148;39.604;2023-03-16T13:33:30;100185.97;;;18.98;49.03
52032;BME280;38044;45.148;39.604;2023-03-16T13:35:58;100133.81;;;18.45;49.06
52032;BME280;38044;45.148;39.604;2023-03-16T13:38:26;100319.69;;;19.44;49.10
52032;BME280;38044;45.148;39.604;2023-03-16T13:41:00;100160.31;;;18.48;49.45
52032;BME280;38044;45.148;39.604;2023-03-16T13:43:28;100303.16;;;19.18;50.19
52032;BME280;38044;45.148;39.604;2023-03-16T13:45:56;100211.09;;;18.40;50.61
52032;BME280;38044;45.148;39.604;2023-03-16T13:48:22;100262.25;;;18.66;50.65
52032;BME280;38044;45.148;39.604;2023-03-16T13:50:56;100298.72;;;18.78;51.39
52032;BME280;38044;45.148;39.604;2023-03-16T13:53:28;100147.19;;;17.59;51.54